sensor_id;sensor_type;location;lat;lon;timestamp;P1;durP1;ratioP1;P2;durP2;ratioP2
5225;SDS011;2632;51.666;7.146;2024-01-16T00:02:16;17.67;;;8.50;;
5225;SDS011;2632;51.666;7.146;2024-01-16T00:04:42;18.80;;;9.60;;
5225;SDS011;2632;51.666;7.146;2024-01-16T00:07:10;30.70;;;10.10;;
5225;SDS011;2632;51.666;7.146;2024-01-16T00:09:36;22.37;;;10.23;;
5225;SDS011;2632;51.666;7.146;2024-01-16T00:12:03;21.33;;;10.27;;
5225;SDS011;2632;51.666;7.146;2024-01-16T00:14:30;22.37;;;9.67;;
5225;SDS011;2632;51.666;7.146;2024-01-16T00:17:00;18.73;;;9.07;;
5225;SDS011;2632;51.666;7.146;2024-01-16T00:19:27;19.73;;;10.57;;
5225;SDS011;2632;51.666;7.146;2024-01-16T00:21:53;18.37;;;8.97;;
5225;SDS011;2632;51.666;7.146;2024-01-16T00:24:20;18.97;;;10.17;;
5225;SDS011;2632;51.666;7.146;2024-01-16T00:26:47;16.60;;;9.40;;
5225;SDS011;2632;51.666;7.146;2024-01-16T00:29:16;15.20;;;8.83;;
5225;SDS011;2632;51.666;7.146;2024-01-16T00:31:42;17.10;;;8.10;;
5225;SDS011;2632;51.666;7.146;2024-01-16T00:34:09;16.20;;;8.47;;
5225;SDS011;2632;51.666;7.146;2024-01-16T00:36:36;18.50;;;10.33;;
5225;SDS011;2632;51.666;7.146;2024-01-16T00:39:03;19.53;;;8.20;;
5225;SDS011;2632;51.666;7.146;2024-01-16T00:41:29;17.03;;;8.63;;
5225;SDS011;2632;51.666;7.146;2024-01-16T00:43:56;23.30;;;8.93;;
5225;SDS011;2632;51.666;7.146;2024-01-16T00:46:23;17.60;;;7.60;;
5225;SDS011;2632;51.666;7.146;2024-01-16T00:48:49;22.23;;;8.40;;
5225;SDS011;2632;51.666;7.146;2024-01-16T00:51:16;15.90;;;7.93;;
5225;SDS011;2632;51.666;7.146;2024-01-16T00:53:43;16.57;;;8.33;;
5225;SDS011;2632;51.666;7.146;2024-01-16T00:56:10;14.00;;;8.00;;
5225;SDS011;2632;51.666;7.146;2024-01-16T00:58:38;21.73;;;8.70;;
5225;SDS011;2632;51.666;7.146;2024-01-16T01:01:05;13.60;;;6.97;;
5225;SDS011;2632;51.666;7.146;2024-01-16T01:03:32;13.50;;;7.47;;
5225;SDS011;2632;51.666;7.146;2024-01-16T01:05:59;15.57;;;7.27;;
5225;SDS011;2632;51.666;7.146;2024-01-16T01:08:27;15.63;;;8.20;;
5225;SDS011;2632;51.666;7.146;2024-01-16T01:10:54;16.60;;;7.60;;
5225;SDS011;2632;51.666;7.146;2024-01-16T01:13:21;14.03;;;6.47;;
5225;SDS011;2632;51.666;7.146;2024-01-16T01:15:49;16.17;;;7.60;;
5225;SDS011;2632;51.666;7.146;2024-01-16T01:18:15;13.80;;;7.27;;
5225;SDS011;2632;51.666;7.146;2024-01-16T01:20:42;14.70;;;7.50;;
5225;SDS011;2632;51.666;7.146;2024-01-16T01:23:09;17.80;;;7.60;;
5225;SDS011;2632;51.666;7.146;2024-01-16T01:25:36;18.30;;;7.27;;
5225;SDS011;2632;51.666;7.146;2024-01-16T01:28:03;22.43;;;7.33;;
5225;SDS011;2632;51.666;7.146;2024-01-16T01:30:30;21.80;;;9.47;;
5225;SDS011;2632;51.666;7.146;2024-01-16T01:32:56;29.63;;;8.63;;
5225;SDS011;2632;51.666;7.146;2024-01-16T01:35:23;14.00;;;7.50;;
5225;SDS011;2632;51.666;7.146;2024-01-16T01:37:50;18.73;;;8.27;;
5225;SDS011;2632;51.666;7.146;2024-01-16T01:40:17;16.77;;;7.40;;
5225;SDS011;2632;51.666;7.146;2024-01-16T01:42:43;17.27;;;7.57;;
5225;SDS011;2632;51.666;7.146;2024-01-16T01:45:10;15.43;;;7.90;;
5225;SDS011;2632;51.666;7.146;2024-01-16T01:47:41;12.63;;;6.00;;
5225;SDS011;2632;51.666;7.146;2024-01-16T01:50:10;14.80;;;6.80;;
5225;SDS011;2632;51.666;7.146;2024-01-16T01:52:38;16.43;;;6.43;;
5225;SDS011;2632;51.666;7.146;2024-01-16T01:55:07;10.30;;;5.87;;
5225;SDS011;2632;51.666;7.146;2024-01-16T01:57:38;12.93;;;5.70;;
5225;SDS011;2632;51.666;7.146;2024-01-16T02:00:05;9.33;;;5.20;;
5225;SDS011;2632;51.666;7.146;2024-01-16T02:02:32;15.43;;;5.60;;
5225;SDS011;2632;51.666;7.146;2024-01-16T02:05:00;12.37;;;5.77;;
5225;SDS011;2632;51.666;7.146;2024-01-16T02:07:27;12.37;;;5.73;;
5225;SDS011;2632;51.666;7.146;2024-01-16T02:09:54;7.90;;;5.33;;
5225;SDS011;2632;51.666;7.146;2024-01-16T02:12:21;12.57;;;5.20;;
5225;SDS011;2632;51.666;7.146;2024-01-16T02:14:51;15.53;;;5.30;;
5225;SDS011;2632;51.666;7.146;2024-01-16T02:17:17;11.73;;;6.07;;
5225;SDS011;2632;51.666;7.146;2024-01-16T02:19:44;12.07;;;4.87;;
5225;SDS011;2632;51.666;7.146;2024-01-16T02:22:12;11.60;;;6.47;;
5225;SDS011;2632;51.666;7.146;2024-01-16T02:24:45;11.93;;;5.70;;
5225;SDS011;2632;51.666;7.146;2024-01-16T02:27:12;13.53;;;6.33;;
5225;SDS011;2632;51.666;7.146;2024-01-16T02:29:42;11.40;;;5.73;;
5225;SDS011;2632;51.666;7.146;2024-01-16T02:32:10;12.40;;;5.30;;
5225;SDS011;2632;51.666;7.146;2024-01-16T02:34:38;12.67;;;6.20;;
5225;SDS011;2632;51.666;7.146;2024-01-16T02:37:05;14.30;;;5.80;;
5225;SDS011;2632;51.666;7.146;2024-01-16T02:39:32;13.70;;;6.40;;
5225;SDS011;2632;51.666;7.146;2024-01-16T02:41:58;15.23;;;6.97;;
5225;SDS011;2632;51.666;7.146;2024-01-16T02:44:25;11.90;;;6.13;;
5225;SDS011;2632;51.666;7.146;2024-01-16T02:46:52;12.93;;;6.10;;
5225;SDS011;2632;51.666;7.146;2024-01-16T02:49:19;13.67;;;5.37;;
5225;SDS011;2632;51.666;7.146;2024-01-16T02:51:45;12.60;;;6.50;;
5225;SDS011;2632;51.666;7.146;2024-01-16T02:54:12;11.40;;;6.03;;
5225;SDS011;2632;51.666;7.146;2024-01-16T02:56:38;13.57;;;5.90;;
5225;SDS011;2632;51.666;7.146;2024-01-16T02:59:05;14.03;;;6.03;;
5225;SDS011;2632;51.666;7.146;2024-01-16T03:01:32;12.90;;;6.50;;
5225;SDS011;2632;51.666;7.146;2024-01-16T03:03:59;11.80;;;6.43;;
5225;SDS011;2632;51.666;7.146;2024-01-16T03:06:25;14.43;;;6.20;;
5225;SDS011;2632;51.666;7.146;2024-01-16T03:08:52;13.20;;;6.00;;
5225;SDS011;2632;51.666;7.146;2024-01-16T03:11:19;12.50;;;6.43;;
5225;SDS011;2632;51.666;7.146;2024-01-16T03:13:46;13.00;;;6.20;;
5225;SDS011;2632;51.666;7.146;2024-01-16T03:16:14;10.80;;;5.60;;
5225;SDS011;2632;51.666;7.146;2024-01-16T03:18:40;15.20;;;5.87;;
5225;SDS011;2632;51.666;7.146;2024-01-16T03:21:07;8.87;;;5.50;;
5225;SDS011;2632;51.666;7.146;2024-01-16T03:23:34;11.07;;;5.67;;
5225;SDS011;2632;51.666;7.146;2024-01-16T03:26:01;17.13;;;6.70;;
5225;SDS011;2632;51.666;7.146;2024-01-16T03:28:29;15.50;;;6.20;;
5225;SDS011;2632;51.666;7.146;2024-01-16T03:30:56;11.83;;;5.33;;
5225;SDS011;2632;51.666;7.146;2024-01-16T03:33:23;13.43;;;5.80;;
5225;SDS011;2632;51.666;7.146;2024-01-16T03:35:50;14.00;;;6.67;;
5225;SDS011;2632;51.666;7.146;2024-01-16T03:38:17;13.63;;;6.10;;
5225;SDS011;2632;51.666;7.146;2024-01-16T03:40:43;13.90;;;6.30;;
5225;SDS011;2632;51.666;7.146;2024-01-16T03:43:10;16.20;;;6.30;;
5225;SDS011;2632;51.666;7.146;2024-01-16T03:45:37;14.97;;;6.37;;
5225;SDS011;2632;51.666;7.146;2024-01-16T03:48:03;13.13;;;6.90;;
5225;SDS011;2632;51.666;7.146;2024-01-16T03:50:31;13.47;;;6.53;;
5225;SDS011;2632;51.666;7.146;2024-01-16T03:52:59;18.23;;;7.13;;
5225;SDS011;2632;51.666;7.146;2024-01-16T03:55:26;12.23;;;6.57;;
5225;SDS011;2632;51.666;7.146;2024-01-16T03:57:53;15.13;;;7.20;;
5225;SDS011;2632;51.666;7.146;2024-01-16T04:00:19;15.17;;;7.33;;
5225;SDS011;2632;51.666;7.146;2024-01-16T04:02:46;15.83;;;7.97;;
5225;SDS011;2632;51.666;7.146;2024-01-16T04:05:13;15.83;;;7.93;;
5225;SDS011;2632;51.666;7.146;2024-01-16T04:07:40;21.13;;;8.53;;
5225;SDS011;2632;51.666;7.146;2024-01-16T04:10:07;13.53;;;7.20;;
5225;SDS011;2632;51.666;7.146;2024-01-16T04:12:34;16.47;;;7.20;;
5225;SDS011;2632;51.666;7.146;2024-01-16T04:15:00;14.93;;;7.70;;
5225;SDS011;2632;51.666;7.146;2024-01-16T04:17:27;14.73;;;7.47;;
5225;SDS011;2632;51.666;7.146;2024-01-16T04:19:54;17.70;;;7.50;;
5225;SDS011;2632;51.666;7.146;2024-01-16T04:22:21;14.80;;;7.63;;
5225;SDS011;2632;51.666;7.146;2024-01-16T04:24:47;14.83;;;7.10;;
5225;SDS011;2632;51.666;7.146;2024-01-16T04:27:14;12.60;;;7.33;;
5225;SDS011;2632;51.666;7.146;2024-01-16T04:29:41;16.30;;;7.97;;
5225;SDS011;2632;51.666;7.146;2024-01-16T04:32:08;15.77;;;6.83;;
5225;SDS011;2632;51.666;7.146;2024-01-16T04:34:35;15.60;;;7.43;;
5225;SDS011;2632;51.666;7.146;2024-01-16T04:37:01;17.57;;;7.43;;
5225;SDS011;2632;51.666;7.146;2024-01-16T04:39:29;16.60;;;7.20;;
5225;SDS011;2632;51.666;7.146;2024-01-16T04:41:56;14.20;;;6.53;;
5225;SDS011;2632;51.666;7.146;2024-01-16T04:44:22;19.23;;;7.63;;
5225;SDS011;2632;51.666;7.146;2024-01-16T04:46:49;14.37;;;7.47;;
5225;SDS011;2632;51.666;7.146;2024-01-16T04:49:15;22.30;;;7.70;;
5225;SDS011;2632;51.666;7.146;2024-01-16T04:51:42;15.43;;;7.00;;
5225;SDS011;2632;51.666;7.146;2024-01-16T04:54:09;17.10;;;7.37;;
5225;SDS011;2632;51.666;7.146;2024-01-16T04:56:37;17.20;;;7.50;;
5225;SDS011;2632;51.666;7.146;2024-01-16T04:59:03;16.40;;;6.97;;
5225;SDS011;2632;51.666;7.146;2024-01-16T05:01:30;15.90;;;7.40;;
5225;SDS011;2632;51.666;7.146;2024-01-16T05:03:57;20.40;;;8.60;;
5225;SDS011;2632;51.666;7.146;2024-01-16T05:06:23;16.93;;;8.20;;
5225;SDS011;2632;51.666;7.146;2024-01-16T05:08:50;17.13;;;7.67;;
5225;SDS011;2632;51.666;7.146;2024-01-16T05:11:18;15.43;;;7.97;;
5225;SDS011;2632;51.666;7.146;2024-01-16T05:13:45;14.27;;;8.00;;
5225;SDS011;2632;51.666;7.146;2024-01-16T05:16:12;17.23;;;8.07;;
5225;SDS011;2632;51.666;7.146;2024-01-16T05:18:42;15.20;;;7.27;;
5225;SDS011;2632;51.666;7.146;2024-01-16T05:21:09;14.20;;;7.80;;
5225;SDS011;2632;51.666;7.146;2024-01-16T05:23:36;19.40;;;7.50;;
5225;SDS011;2632;51.666;7.146;2024-01-16T05:26:03;16.43;;;7.00;;
5225;SDS011;2632;51.666;7.146;2024-01-16T05:28:30;14.83;;;7.57;;
5225;SDS011;2632;51.666;7.146;2024-01-16T05:30:56;17.47;;;7.33;;
5225;SDS011;2632;51.666;7.146;2024-01-16T05:33:23;16.33;;;6.93;;
5225;SDS011;2632;51.666;7.146;2024-01-16T05:35:50;13.40;;;6.87;;
5225;SDS011;2632;51.666;7.146;2024-01-16T05:38:17;16.17;;;8.20;;
5225;SDS011;2632;51.666;7.146;2024-01-16T05:40:44;16.87;;;7.77;;
5225;SDS011;2632;51.666;7.146;2024-01-16T05:43:10;17.40;;;7.80;;
5225;SDS011;2632;51.666;7.146;2024-01-16T05:45:37;16.93;;;7.20;;
5225;SDS011;2632;51.666;7.146;2024-01-16T05:48:04;13.20;;;7.10;;
5225;SDS011;2632;51.666;7.146;2024-01-16T05:50:34;14.87;;;6.60;;
5225;SDS011;2632;51.666;7.146;2024-01-16T05:53:02;12.43;;;6.27;;
5225;SDS011;2632;51.666;7.146;2024-01-16T05:55:29;13.57;;;6.13;;
5225;SDS011;2632;51.666;7.146;2024-01-16T05:57:58;11.40;;;5.63;;
5225;SDS011;2632;51.666;7.146;2024-01-16T06:00:27;11.17;;;5.60;;
5225;SDS011;2632;51.666;7.146;2024-01-16T06:02:54;14.90;;;6.90;;
5225;SDS011;2632;51.666;7.146;2024-01-16T06:05:21;9.03;;;5.30;;
5225;SDS011;2632;51.666;7.146;2024-01-16T06:07:48;9.57;;;6.00;;
5225;SDS011;2632;51.666;7.146;2024-01-16T06:10:14;14.67;;;6.47;;
5225;SDS011;2632;51.666;7.146;2024-01-16T06:12:42;15.73;;;6.13;;
5225;SDS011;2632;51.666;7.146;2024-01-16T06:15:09;12.80;;;5.43;;
5225;SDS011;2632;51.666;7.146;2024-01-16T06:17:37;13.40;;;4.93;;
5225;SDS011;2632;51.666;7.146;2024-01-16T06:20:04;11.20;;;5.00;;
5225;SDS011;2632;51.666;7.146;2024-01-16T06:22:32;12.50;;;5.20;;
5225;SDS011;2632;51.666;7.146;2024-01-16T06:24:59;13.07;;;5.70;;
5225;SDS011;2632;51.666;7.146;2024-01-16T06:27:27;9.77;;;5.77;;
5225;SDS011;2632;51.666;7.146;2024-01-16T06:29:54;10.60;;;5.63;;
5225;SDS011;2632;51.666;7.146;2024-01-16T06:32:21;13.13;;;5.90;;
5225;SDS011;2632;51.666;7.146;2024-01-16T06:34:48;11.57;;;6.73;;
5225;SDS011;2632;51.666;7.146;2024-01-16T06:37:15;17.17;;;6.23;;
5225;SDS011;2632;51.666;7.146;2024-01-16T06:39:41;13.00;;;6.17;;
5225;SDS011;2632;51.666;7.146;2024-01-16T06:42:08;15.17;;;5.60;;
5225;SDS011;2632;51.666;7.146;2024-01-16T06:44:36;10.77;;;5.70;;
5225;SDS011;2632;51.666;7.146;2024-01-16T06:47:04;14.33;;;6.33;;
5225;SDS011;2632;51.666;7.146;2024-01-16T06:49:31;12.43;;;6.50;;
5225;SDS011;2632;51.666;7.146;2024-01-16T06:51:58;10.60;;;5.90;;
5225;SDS011;2632;51.666;7.146;2024-01-16T06:54:25;12.00;;;6.20;;
5225;SDS011;2632;51.666;7.146;2024-01-16T06:56:52;14.53;;;6.53;;
5225;SDS011;2632;51.666;7.146;2024-01-16T06:59:18;16.33;;;6.90;;
5225;SDS011;2632;51.666;7.146;2024-01-16T07:01:46;21.50;;;7.70;;
5225;SDS011;2632;51.666;7.146;2024-01-16T07:04:12;13.17;;;7.60;;
5225;SDS011;2632;51.666;7.146;2024-01-16T07:06:40;15.77;;;8.30;;
5225;SDS011;2632;51.666;7.146;2024-01-16T07:09:07;19.23;;;9.80;;
5225;SDS011;2632;51.666;7.146;2024-01-16T07:11:37;24.10;;;10.83;;
5225;SDS011;2632;51.666;7.146;2024-01-16T07:14:06;24.63;;;10.70;;
5225;SDS011;2632;51.666;7.146;2024-01-16T07:16:34;23.10;;;10.70;;
5225;SDS011;2632;51.666;7.146;2024-01-16T07:19:01;24.00;;;10.87;;
5225;SDS011;2632;51.666;7.146;2024-01-16T07:21:28;21.10;;;10.80;;
5225;SDS011;2632;51.666;7.146;2024-01-16T07:23:55;28.73;;;12.40;;
5225;SDS011;2632;51.666;7.146;2024-01-16T07:26:21;26.37;;;12.00;;
5225;SDS011;2632;51.666;7.146;2024-01-16T07:28:49;26.47;;;12.13;;
5225;SDS011;2632;51.666;7.146;2024-01-16T07:31:16;27.73;;;12.43;;
5225;SDS011;2632;51.666;7.146;2024-01-16T07:33:43;29.60;;;14.03;;
5225;SDS011;2632;51.666;7.146;2024-01-16T07:36:11;30.70;;;14.50;;
5225;SDS011;2632;51.666;7.146;2024-01-16T07:38:38;33.60;;;15.00;;
5225;SDS011;2632;51.666;7.146;2024-01-16T07:41:05;33.50;;;15.00;;
5225;SDS011;2632;51.666;7.146;2024-01-16T07:43:32;29.80;;;15.43;;
5225;SDS011;2632;51.666;7.146;2024-01-16T07:45:59;31.47;;;16.23;;
5225;SDS011;2632;51.666;7.146;2024-01-16T07:48:25;30.50;;;15.37;;
5225;SDS011;2632;51.666;7.146;2024-01-16T07:50:53;33.50;;;17.57;;
5225;SDS011;2632;51.666;7.146;2024-01-16T07:53:19;30.97;;;16.40;;
5225;SDS011;2632;51.666;7.146;2024-01-16T07:55:46;30.83;;;16.70;;
5225;SDS011;2632;51.666;7.146;2024-01-16T07:58:13;34.17;;;17.40;;
5225;SDS011;2632;51.666;7.146;2024-01-16T08:00:40;31.73;;;15.80;;
5225;SDS011;2632;51.666;7.146;2024-01-16T08:03:07;36.40;;;16.43;;
5225;SDS011;2632;51.666;7.146;2024-01-16T08:05:37;36.53;;;17.07;;
5225;SDS011;2632;51.666;7.146;2024-01-16T08:08:04;29.63;;;15.50;;
5225;SDS011;2632;51.666;7.146;2024-01-16T08:10:31;33.40;;;17.33;;
5225;SDS011;2632;51.666;7.146;2024-01-16T08:12:58;37.60;;;16.10;;
5225;SDS011;2632;51.666;7.146;2024-01-16T08:15:25;27.37;;;14.90;;
5225;SDS011;2632;51.666;7.146;2024-01-16T08:17:51;27.27;;;13.40;;
5225;SDS011;2632;51.666;7.146;2024-01-16T08:20:18;25.03;;;12.77;;
5225;SDS011;2632;51.666;7.146;2024-01-16T08:22:45;25.57;;;12.97;;
5225;SDS011;2632;51.666;7.146;2024-01-16T08:25:12;24.07;;;12.33;;
5225;SDS011;2632;51.666;7.146;2024-01-16T08:27:38;18.90;;;11.20;;
5225;SDS011;2632;51.666;7.146;2024-01-16T08:30:05;19.20;;;11.30;;
5225;SDS011;2632;51.666;7.146;2024-01-16T08:32:33;27.40;;;11.17;;
5225;SDS011;2632;51.666;7.146;2024-01-16T08:35:00;20.83;;;9.63;;
5225;SDS011;2632;51.666;7.146;2024-01-16T08:37:27;15.60;;;9.07;;
5225;SDS011;2632;51.666;7.146;2024-01-16T08:39:53;19.17;;;9.50;;
5225;SDS011;2632;51.666;7.146;2024-01-16T08:42:20;19.67;;;9.37;;
5225;SDS011;2632;51.666;7.146;2024-01-16T08:44:46;19.80;;;9.53;;
5225;SDS011;2632;51.666;7.146;2024-01-16T08:47:13;14.37;;;8.23;;
5225;SDS011;2632;51.666;7.146;2024-01-16T08:49:40;21.23;;;8.50;;
5225;SDS011;2632;51.666;7.146;2024-01-16T08:52:07;18.10;;;7.43;;
5225;SDS011;2632;51.666;7.146;2024-01-16T08:54:33;17.87;;;7.90;;
5225;SDS011;2632;51.666;7.146;2024-01-16T08:57:00;18.40;;;7.40;;
5225;SDS011;2632;51.666;7.146;2024-01-16T08:59:27;11.77;;;7.00;;
5225;SDS011;2632;51.666;7.146;2024-01-16T09:01:54;22.20;;;7.43;;
5225;SDS011;2632;51.666;7.146;2024-01-16T09:04:21;13.60;;;6.90;;
5225;SDS011;2632;51.666;7.146;2024-01-16T09:06:49;11.30;;;5.67;;
5225;SDS011;2632;51.666;7.146;2024-01-16T09:09:16;11.83;;;6.37;;
5225;SDS011;2632;51.666;7.146;2024-01-16T09:11:42;14.67;;;6.27;;
5225;SDS011;2632;51.666;7.146;2024-01-16T09:14:09;16.00;;;6.80;;
5225;SDS011;2632;51.666;7.146;2024-01-16T09:16:36;14.93;;;6.00;;
5225;SDS011;2632;51.666;7.146;2024-01-16T09:19:02;11.00;;;5.20;;
5225;SDS011;2632;51.666;7.146;2024-01-16T09:21:29;11.50;;;5.30;;
5225;SDS011;2632;51.666;7.146;2024-01-16T09:23:56;15.30;;;6.40;;
5225;SDS011;2632;51.666;7.146;2024-01-16T09:26:23;13.10;;;5.80;;
5225;SDS011;2632;51.666;7.146;2024-01-16T09:28:49;15.00;;;6.40;;
5225;SDS011;2632;51.666;7.146;2024-01-16T09:31:16;10.03;;;5.20;;
5225;SDS011;2632;51.666;7.146;2024-01-16T09:33:43;10.27;;;4.93;;
5225;SDS011;2632;51.666;7.146;2024-01-16T09:36:10;12.33;;;5.20;;
5225;SDS011;2632;51.666;7.146;2024-01-16T09:38:36;10.27;;;4.63;;
5225;SDS011;2632;51.666;7.146;2024-01-16T09:41:03;17.63;;;5.50;;
5225;SDS011;2632;51.666;7.146;2024-01-16T09:43:30;13.60;;;5.30;;
5225;SDS011;2632;51.666;7.146;2024-01-16T09:46:00;12.30;;;5.50;;
5225;SDS011;2632;51.666;7.146;2024-01-16T09:48:28;15.30;;;4.70;;
5225;SDS011;2632;51.666;7.146;2024-01-16T09:50:58;14.63;;;5.30;;
5225;SDS011;2632;51.666;7.146;2024-01-16T09:53:24;15.50;;;4.33;;
5225;SDS011;2632;51.666;7.146;2024-01-16T09:55:51;8.67;;;4.70;;
5225;SDS011;2632;51.666;7.146;2024-01-16T09:58:21;15.77;;;5.23;;
5225;SDS011;2632;51.666;7.146;2024-01-16T10:00:51;10.47;;;4.50;;
5225;SDS011;2632;51.666;7.146;2024-01-16T10:03:18;12.87;;;4.53;;
5225;SDS011;2632;51.666;7.146;2024-01-16T10:05:45;8.67;;;4.00;;
5225;SDS011;2632;51.666;7.146;2024-01-16T10:08:14;15.63;;;4.40;;
5225;SDS011;2632;51.666;7.146;2024-01-16T10:10:41;14.53;;;4.20;;
5225;SDS011;2632;51.666;7.146;2024-01-16T10:13:15;13.17;;;4.30;;
5225;SDS011;2632;51.666;7.146;2024-01-16T10:15:43;9.87;;;4.20;;
5225;SDS011;2632;51.666;7.146;2024-01-16T10:18:23;11.83;;;4.20;;
5225;SDS011;2632;51.666;7.146;2024-01-16T10:20:51;12.97;;;4.20;;
5225;SDS011;2632;51.666;7.146;2024-01-16T10:23:25;15.57;;;4.30;;
5225;SDS011;2632;51.666;7.146;2024-01-16T10:26:07;11.40;;;4.53;;
5225;SDS011;2632;51.666;7.146;2024-01-16T10:28:38;8.13;;;3.90;;
5225;SDS011;2632;51.666;7.146;2024-01-16T10:31:07;16.50;;;5.53;;
5225;SDS011;2632;51.666;7.146;2024-01-16T10:33:35;12.07;;;5.07;;
5225;SDS011;2632;51.666;7.146;2024-01-16T10:36:12;7.87;;;5.17;;
5225;SDS011;2632;51.666;7.146;2024-01-16T10:38:47;13.20;;;4.27;;
5225;SDS011;2632;51.666;7.146;2024-01-16T10:41:14;9.43;;;4.23;;
5225;SDS011;2632;51.666;7.146;2024-01-16T10:44:03;10.37;;;5.20;;
5225;SDS011;2632;51.666;7.146;2024-01-16T10:46:33;9.17;;;4.73;;
5225;SDS011;2632;51.666;7.146;2024-01-16T10:49:03;11.80;;;4.37;;
5225;SDS011;2632;51.666;7.146;2024-01-16T10:51:31;11.50;;;4.90;;
5225;SDS011;2632;51.666;7.146;2024-01-16T10:53:59;13.43;;;5.03;;
5225;SDS011;2632;51.666;7.146;2024-01-16T10:56:32;11.80;;;4.13;;
5225;SDS011;2632;51.666;7.146;2024-01-16T10:59:11;9.03;;;4.20;;
5225;SDS011;2632;51.666;7.146;2024-01-16T11:01:42;11.70;;;4.70;;
5225;SDS011;2632;51.666;7.146;2024-01-16T11:04:12;11.10;;;4.90;;
5225;SDS011;2632;51.666;7.146;2024-01-16T11:06:41;16.23;;;4.50;;
5225;SDS011;2632;51.666;7.146;2024-01-16T11:09:08;11.30;;;5.23;;
5225;SDS011;2632;51.666;7.146;2024-01-16T11:11:35;10.30;;;4.50;;
5225;SDS011;2632;51.666;7.146;2024-01-16T11:14:04;15.20;;;5.20;;
5225;SDS011;2632;51.666;7.146;2024-01-16T11:16:32;8.70;;;4.33;;
5225;SDS011;2632;51.666;7.146;2024-01-16T11:18:59;9.03;;;4.33;;
5225;SDS011;2632;51.666;7.146;2024-01-16T11:21:46;10.83;;;4.33;;
5225;SDS011;2632;51.666;7.146;2024-01-16T11:24:15;8.23;;;4.00;;
5225;SDS011;2632;51.666;7.146;2024-01-16T11:26:42;11.80;;;4.67;;
5225;SDS011;2632;51.666;7.146;2024-01-16T11:31:55;8.97;;;4.20;;
5225;SDS011;2632;51.666;7.146;2024-01-16T11:37:15;9.40;;;4.10;;
5225;SDS011;2632;51.666;7.146;2024-01-16T11:42:44;8.40;;;3.60;;
5225;SDS011;2632;51.666;7.146;2024-01-16T11:48:12;9.80;;;4.40;;
5225;SDS011;2632;51.666;7.146;2024-01-16T11:50:40;8.87;;;4.03;;
5225;SDS011;2632;51.666;7.146;2024-01-16T11:53:07;7.10;;;3.50;;
5225;SDS011;2632;51.666;7.146;2024-01-16T11:55:35;7.30;;;3.70;;
5225;SDS011;2632;51.666;7.146;2024-01-16T12:00:57;10.93;;;4.27;;
5225;SDS011;2632;51.666;7.146;2024-01-16T12:03:24;8.13;;;3.87;;
5225;SDS011;2632;51.666;7.146;2024-01-16T12:06:00;6.27;;;4.07;;
5225;SDS011;2632;51.666;7.146;2024-01-16T12:08:33;6.73;;;3.60;;
5225;SDS011;2632;51.666;7.146;2024-01-16T12:11:00;8.50;;;4.50;;
5225;SDS011;2632;51.666;7.146;2024-01-16T12:13:26;7.93;;;3.70;;
5225;SDS011;2632;51.666;7.146;2024-01-16T12:16:02;10.43;;;3.77;;
5225;SDS011;2632;51.666;7.146;2024-01-16T12:18:32;9.43;;;4.30;;
5225;SDS011;2632;51.666;7.146;2024-01-16T12:21:12;8.30;;;4.40;;
5225;SDS011;2632;51.666;7.146;2024-01-16T12:23:41;10.93;;;4.63;;
5225;SDS011;2632;51.666;7.146;2024-01-16T12:26:21;11.27;;;3.80;;
5225;SDS011;2632;51.666;7.146;2024-01-16T12:28:52;13.23;;;4.77;;
5225;SDS011;2632;51.666;7.146;2024-01-16T12:31:25;9.10;;;3.77;;
5225;SDS011;2632;51.666;7.146;2024-01-16T12:34:08;11.83;;;4.80;;
5225;SDS011;2632;51.666;7.146;2024-01-16T12:36:36;8.47;;;3.90;;
5225;SDS011;2632;51.666;7.146;2024-01-16T12:39:04;7.20;;;3.60;;
5225;SDS011;2632;51.666;7.146;2024-01-16T12:41:41;8.80;;;3.87;;
5225;SDS011;2632;51.666;7.146;2024-01-16T12:44:10;9.40;;;3.83;;
5225;SDS011;2632;51.666;7.146;2024-01-16T12:46:43;11.27;;;4.47;;
5225;SDS011;2632;51.666;7.146;2024-01-16T12:49:30;13.53;;;3.93;;
5225;SDS011;2632;51.666;7.146;2024-01-16T12:54:44;6.83;;;4.23;;
5225;SDS011;2632;51.666;7.146;2024-01-16T12:57:16;11.33;;;4.57;;
5225;SDS011;2632;51.666;7.146;2024-01-16T12:59:44;7.40;;;4.30;;
5225;SDS011;2632;51.666;7.146;2024-01-16T13:02:19;8.33;;;4.17;;
5225;SDS011;2632;51.666;7.146;2024-01-16T13:04:57;8.60;;;3.47;;
5225;SDS011;2632;51.666;7.146;2024-01-16T13:07:26;9.63;;;3.87;;
5225;SDS011;2632;51.666;7.146;2024-01-16T13:10:09;6.83;;;3.40;;
5225;SDS011;2632;51.666;7.146;2024-01-16T13:12:42;8.13;;;4.20;;
5225;SDS011;2632;51.666;7.146;2024-01-16T13:15:09;9.83;;;3.93;;
5225;SDS011;2632;51.666;7.146;2024-01-16T13:17:37;12.67;;;4.00;;
5225;SDS011;2632;51.666;7.146;2024-01-16T13:20:04;9.63;;;4.53;;
5225;SDS011;2632;51.666;7.146;2024-01-16T13:22:34;7.53;;;3.83;;
5225;SDS011;2632;51.666;7.146;2024-01-16T13:25:11;6.30;;;3.63;;
5225;SDS011;2632;51.666;7.146;2024-01-16T13:27:38;5.83;;;3.57;;
5225;SDS011;2632;51.666;7.146;2024-01-16T13:30:05;8.40;;;4.20;;
5225;SDS011;2632;51.666;7.146;2024-01-16T13:32:32;12.77;;;4.50;;
5225;SDS011;2632;51.666;7.146;2024-01-16T13:35:03;8.80;;;4.33;;
5225;SDS011;2632;51.666;7.146;2024-01-16T13:37:33;8.60;;;3.90;;
5225;SDS011;2632;51.666;7.146;2024-01-16T13:40:04;11.23;;;4.00;;
5225;SDS011;2632;51.666;7.146;2024-01-16T13:42:35;9.13;;;4.00;;
5225;SDS011;2632;51.666;7.146;2024-01-16T13:45:03;7.60;;;4.20;;
5225;SDS011;2632;51.666;7.146;2024-01-16T13:47:31;7.67;;;4.10;;
5225;SDS011;2632;51.666;7.146;2024-01-16T13:49:58;6.90;;;4.33;;
5225;SDS011;2632;51.666;7.146;2024-01-16T13:52:24;9.70;;;4.70;;
5225;SDS011;2632;51.666;7.146;2024-01-16T13:54:54;7.27;;;4.43;;
5225;SDS011;2632;51.666;7.146;2024-01-16T13:57:21;10.80;;;5.60;;
5225;SDS011;2632;51.666;7.146;2024-01-16T13:59:47;14.60;;;5.20;;
5225;SDS011;2632;51.666;7.146;2024-01-16T14:02:14;15.40;;;4.90;;
5225;SDS011;2632;51.666;7.146;2024-01-16T14:04:41;8.20;;;3.97;;
5225;SDS011;2632;51.666;7.146;2024-01-16T14:07:08;8.20;;;4.60;;
5225;SDS011;2632;51.666;7.146;2024-01-16T14:09:39;10.17;;;5.30;;
5225;SDS011;2632;51.666;7.146;2024-01-16T14:12:11;9.63;;;4.40;;
5225;SDS011;2632;51.666;7.146;2024-01-16T14:14:39;12.60;;;5.00;;
5225;SDS011;2632;51.666;7.146;2024-01-16T14:17:07;9.93;;;5.30;;
5225;SDS011;2632;51.666;7.146;2024-01-16T14:19:34;16.90;;;5.30;;
5225;SDS011;2632;51.666;7.146;2024-01-16T14:22:01;9.43;;;4.77;;
5225;SDS011;2632;51.666;7.146;2024-01-16T14:24:28;15.17;;;5.77;;
5225;SDS011;2632;51.666;7.146;2024-01-16T14:26:55;9.00;;;4.70;;
5225;SDS011;2632;51.666;7.146;2024-01-16T14:29:24;14.13;;;5.57;;
5225;SDS011;2632;51.666;7.146;2024-01-16T14:31:52;10.20;;;5.17;;
5225;SDS011;2632;51.666;7.146;2024-01-16T14:34:22;12.20;;;5.50;;
5225;SDS011;2632;51.666;7.146;2024-01-16T14:36:49;9.90;;;4.87;;
5225;SDS011;2632;51.666;7.146;2024-01-16T14:39:16;14.40;;;5.07;;
5225;SDS011;2632;51.666;7.146;2024-01-16T14:41:48;9.00;;;5.10;;
5225;SDS011;2632;51.666;7.146;2024-01-16T14:44:15;12.53;;;5.27;;
5225;SDS011;2632;51.666;7.146;2024-01-16T14:46:41;8.77;;;5.20;;
5225;SDS011;2632;51.666;7.146;2024-01-16T14:49:11;9.40;;;5.70;;
5225;SDS011;2632;51.666;7.146;2024-01-16T14:51:38;15.00;;;5.53;;
5225;SDS011;2632;51.666;7.146;2024-01-16T14:54:05;10.47;;;4.73;;
5225;SDS011;2632;51.666;7.146;2024-01-16T14:56:31;10.93;;;5.60;;
5225;SDS011;2632;51.666;7.146;2024-01-16T14:58:58;10.90;;;5.23;;
5225;SDS011;2632;51.666;7.146;2024-01-16T15:01:25;11.43;;;5.10;;
5225;SDS011;2632;51.666;7.146;2024-01-16T15:03:53;9.63;;;5.60;;
5225;SDS011;2632;51.666;7.146;2024-01-16T15:06:20;10.93;;;5.87;;
5225;SDS011;2632;51.666;7.146;2024-01-16T15:08:47;14.50;;;5.60;;
5225;SDS011;2632;51.666;7.146;2024-01-16T15:11:14;15.93;;;6.10;;
5225;SDS011;2632;51.666;7.146;2024-01-16T15:13:43;12.13;;;6.60;;
5225;SDS011;2632;51.666;7.146;2024-01-16T15:16:11;10.47;;;6.03;;
5225;SDS011;2632;51.666;7.146;2024-01-16T15:18:37;10.97;;;5.60;;
5225;SDS011;2632;51.666;7.146;2024-01-16T15:21:04;12.90;;;6.00;;
5225;SDS011;2632;51.666;7.146;2024-01-16T15:23:31;16.83;;;6.90;;
5225;SDS011;2632;51.666;7.146;2024-01-16T15:25:57;10.23;;;6.30;;